Time;durP1;ratioP1;P1;durP2;ratioP2;P2;SDS_P1;SDS_P2;PMS_P1;PMS_P2;Temp;Humidity;BMP_temperature;BMP_pressure;BME280_temperature;BME280_humidity;BME280_pressure;Samples;Min_cycle;Max_cycle;Signal;HPM_P1;HPM_P2
2023/06/02 00:02:29;;;;;;;10.20;2.22;;;;;;;10.00;75.51;101281.38;6024404;28;20113;-67
2023/06/02 00:05:26;;;;;;;6.85;1.45;;;;;;;9.94;75.21;101266.00;6050754;28;20041;-67
2023/06/02 00:08:22;;;;;;;12.20;2.35;;;;;;;9.88;75.48;101263.84;6044527;28;20026;-67
2023/06/02 00:11:18;;;;;;;11.27;2.53;;;;;;;9.94;75.42;101273.94;6051112;28;20037;-67
2023/06/02 00:14:14;;;;;;;8.52;1.80;;;;;;;9.95;75.59;101288.84;6044826;28;20477;-67
2023/06/02 00:17:10;;;;;;;12.43;2.25;;;;;;;9.93;75.35;101285.50;6027553;28;20054;-67
2023/06/02 00:20:06;;;;;;;8.20;1.98;;;;;;;9.93;75.18;101296.94;6020310;28;20113;-66
2023/06/02 00:23:02;;;;;;;7.68;1.70;;;;;;;9.78;76.28;101282.34;6026320;28;20018;-66
2023/06/02 00:25:57;;;;;;;10.38;2.53;;;;;;;9.80;76.39;101298.09;6026818;28;20081;-67
2023/06/02 00:28:53;;;;;;;14.55;2.15;;;;;;;9.71;75.85;101278.50;6026967;28;20026;-66
2023/06/02 00:31:48;;;;;;;11.30;2.25;;;;;;;9.78;75.08;101303.53;6027319;28;20075;-67
2023/06/02 00:34:43;;;;;;;14.30;2.53;;;;;;;9.66;75.25;101293.06;6022453;28;20030;-67
2023/06/02 00:37:39;;;;;;;9.27;2.23;;;;;;;9.68;75.40;101296.44;6028092;28;20560;-67
2023/06/02 00:40:35;;;;;;;14.47;2.07;;;;;;;9.59;75.42;101288.28;6050725;28;20037;-67
2023/06/02 00:43:30;;;;;;;9.18;1.95;;;;;;;9.53;75.29;101278.22;6049697;28;20385;-67
2023/06/02 00:46:25;;;;;;;9.87;1.93;;;;;;;9.48;75.63;101277.72;6032983;28;20041;-66
2023/06/02 00:49:20;;;;;;;11.73;2.00;;;;;;;9.48;75.79;101285.66;6031105;28;20034;-66
2023/06/02 00:52:18;;;;;;;12.60;1.63;;;;;;;9.53;76.39;101299.41;6041225;28;20101;-67
2023/06/02 00:55:13;;;;;;;9.93;2.05;;;;;;;9.54;76.38;101295.75;6049501;28;20075;-66
2023/06/02 00:58:13;;;;;;;11.95;1.80;;;;;;;9.46;76.78;101281.47;6023081;28;20078;-66
2023/06/02 01:01:10;;;;;;;9.82;1.90;;;;;;;9.49;77.00;101300.59;6026626;28;20034;-66
2023/06/02 01:04:07;;;;;;;8.25;2.10;;;;;;;9.48;76.98;101283.00;6025771;28;20109;-67
2023/06/02 01:07:03;;;;;;;9.23;2.10;;;;;;;9.54;77.41;101295.75;6026357;28;20446;-66
2023/06/02 01:10:02;;;;;;;10.77;2.03;;;;;;;9.56;77.73;101288.56;6026332;28;20035;-66
2023/06/02 01:12:58;;;;;;;10.27;2.33;;;;;;;9.54;77.62;101306.34;6024888;28;20434;-66
2023/06/02 01:15:53;;;;;;;11.45;2.30;;;;;;;9.48;77.42;101288.31;6021567;28;20088;-66
2023/06/02 01:18:49;;;;;;;9.03;1.93;;;;;;;9.55;77.98;101300.09;6024447;28;20027;-67
2023/06/02 01:21:57;;;;;;;11.57;1.98;;;;;;;9.49;78.41;101297.94;6017344;28;20097;-66
2023/06/02 01:24:57;;;;;;;6.63;1.67;;;;;;;9.50;77.68;101298.78;6017674;28;20041;-66
2023/06/02 01:27:52;;;;;;;;;;;;;;;9.52;77.67;101305.66;6020662;28;20046;-66
2023/06/02 01:30:50;;;;;;;8.77;1.93;;;;;;;9.48;77.71;101303.38;6021127;28;19906;-66
2023/06/02 01:34:00;;;;;;;13.30;2.00;;;;;;;9.20;78.68;101291.53;6023205;28;20034;-66
2023/06/02 01:36:57;;;;;;;4.68;1.73;;;;;;;9.22;79.34;101308.09;6026046;28;20045;-66
2023/06/02 01:39:53;;;;;;;9.05;2.50;;;;;;;9.04;79.95;101293.72;6025848;28;20030;-66
2023/06/02 01:42:49;;;;;;;8.75;1.67;;;;;;;9.01;80.32;101293.09;6018498;28;20037;-66
2023/06/02 01:45:45;;;;;;;9.82;2.72;;;;;;;9.18;80.34;101296.09;6023290;28;20030;-66
2023/06/02 01:48:40;;;;;;;10.10;1.88;;;;;;;9.15;80.43;101304.28;6025757;28;20162;-66
2023/06/02 01:51:36;;;;;;;9.47;1.90;;;;;;;9.24;80.48;101303.53;6025870;28;20481;-65
2023/06/02 01:54:31;;;;;;;8.27;2.03;;;;;;;9.18;80.28;101279.38;6024933;28;20036;-65
2023/06/02 01:57:27;;;;;;;9.00;1.87;;;;;;;9.29;80.81;101288.16;6024090;28;20081;-65
2023/06/02 02:00:23;;;;;;;8.40;1.85;;;;;;;9.26;80.91;101285.75;6025475;28;20035;-65
2023/06/02 02:03:18;;;;;;;16.33;2.57;;;;;;;9.18;81.38;101276.75;6025764;28;20034;-65
2023/06/02 02:06:14;;;;;;;4.80;1.90;;;;;;;9.37;81.44;101288.38;6016106;28;20034;-65
2023/06/02 02:09:09;;;;;;;9.85;2.22;;;;;;;9.38;81.53;101289.19;6043335;28;20026;-66
2023/06/02 02:12:05;;;;;;;9.25;2.40;;;;;;;9.40;81.67;101295.22;6037537;28;20042;-66
2023/06/02 02:15:00;;;;;;;11.98;2.35;;;;;;;9.40;81.37;101282.81;6020437;28;20039;-66
2023/06/02 02:17:57;;;;;;;13.05;2.47;;;;;;;9.45;81.03;101293.03;6025628;28;20034;-66
2023/06/02 02:20:52;;;;;;;9.10;2.38;;;;;;;9.44;81.21;101300.13;6036479;28;20087;-66
2023/06/02 02:23:47;;;;;;;11.07;1.90;;;;;;;9.48;81.08;101300.72;6040324;28;20026;-67
2023/06/02 02:26:43;;;;;;;14.73;2.55;;;;;;;9.40;81.58;101292.56;6022335;28;20030;-66
2023/06/02 02:29:38;;;;;;;7.72;1.95;;;;;;;9.37;81.63;101292.81;6025325;28;20032;-66
2023/06/02 02:32:44;;;;;;;12.90;2.37;;;;;;;9.26;81.95;101285.75;6025539;28;20030;-66
2023/06/02 02:35:41;;;;;;;9.73;1.65;;;;;;;9.32;82.31;101300.28;6015984;28;20046;-67
2023/06/02 02:38:36;;;;;;;10.25;1.80;;;;;;;9.29;82.34;101282.84;6006790;28;20097;-66
2023/06/02 02:41:31;;;;;;;11.60;2.07;;;;;;;9.32;81.88;101277.28;6025916;28;20470;-66
2023/06/02 02:44:27;;;;;;;10.83;2.00;;;;;;;9.50;82.12;101294.34;6020440;28;20045;-67
2023/06/02 02:47:22;;;;;;;7.07;1.57;;;;;;;9.35;82.15;101300.88;6021893;28;20030;-66
2023/06/02 02:50:17;;;;;;;10.67;2.37;;;;;;;9.29;82.00;101279.38;6024211;28;20121;-66
2023/06/02 02:53:15;;;;;;;8.17;1.60;;;;;;;9.29;81.79;101282.00;6028411;28;20034;-66
2023/06/02 02:56:12;;;;;;;7.65;2.55;;;;;;;9.29;82.42;101306.69;6019582;28;20541;-66
2023/06/02 02:59:07;;;;;;;10.88;2.30;;;;;;;9.23;82.41;101290.44;6028958;28;20382;-66
2023/06/02 03:02:05;;;;;;;9.70;2.20;;;;;;;9.16;82.93;101294.53;6028470;28;20034;-66
2023/06/02 03:05:02;;;;;;;9.27;2.13;;;;;;;9.03;83.26;101289.38;6028218;28;20026;-66
2023/06/02 03:07:57;;;;;;;10.73;2.00;;;;;;;8.95;84.10;101297.06;6037431;28;20024;-66
2023/06/02 03:10:53;;;;;;;9.47;1.93;;;;;;;8.71;85.07;101277.84;6052616;28;20041;-66
2023/06/02 03:13:48;;;;;;;12.02;2.75;;;;;;;8.67;85.94;101294.94;6029594;28;20555;-66
2023/06/02 03:16:44;;;;;;;6.43;1.77;;;;;;;8.65;87.36;101302.13;6027195;28;20374;-66
2023/06/02 03:19:40;;;;;;;11.45;2.00;;;;;;;8.55;88.03;101295.88;6024194;28;20054;-66
2023/06/02 03:22:36;;;;;;;10.07;2.05;;;;;;;8.46;88.60;101304.50;6028087;28;20030;-66
2023/06/02 03:25:32;;;;;;;10.70;2.15;;;;;;;8.26;89.35;101279.59;6027176;28;20109;-66
2023/06/02 03:28:27;;;;;;;9.52;2.47;;;;;;;8.18;89.85;101280.16;6028501;28;20022;-66
2023/06/02 03:31:25;;;;;;;6.93;2.20;;;;;;;8.17;90.29;101288.22;6022595;28;20038;-66
2023/06/02 03:34:20;;;;;;;8.45;2.20;;;;;;;8.23;90.45;101296.53;6026831;28;20444;-66
2023/06/02 03:37:15;;;;;;;12.85;2.22;;;;;;;8.24;90.84;101303.47;6028524;28;20026;-67
2023/06/02 03:40:11;;;;;;;11.63;2.63;;;;;;;8.24;91.19;101300.81;6028141;28;20034;-66
2023/06/02 03:43:06;;;;;;;7.85;2.17;;;;;;;8.17;91.49;101315.47;6027967;28;20056;-66
2023/06/02 03:46:02;;;;;;;18.30;3.60;;;;;;;8.17;92.03;101298.78;6027093;28;20378;-66
2023/06/02 03:48:57;;;;;;;9.03;1.90;;;;;;;8.34;92.25;101312.41;6020505;28;20023;-66
2023/06/02 03:51:52;;;;;;;13.23;2.20;;;;;;;8.36;91.61;101305.22;6040619;28;20032;-66
2023/06/02 03:54:49;;;;;;;11.83;2.30;;;;;;;8.59;90.92;101316.66;6034265;28;20103;-67
2023/06/02 03:57:46;;;;;;;13.82;2.30;;;;;;;8.77;90.57;101315.25;6027252;28;20370;-67
2023/06/02 04:00:42;;;;;;;7.20;2.40;;;;;;;8.97;89.06;101316.31;6026025;28;20041;-66
2023/06/02 04:03:37;;;;;;;12.75;2.85;;;;;;;9.05;88.45;101319.19;6027255;28;20038;-67
2023/06/02 04:06:32;;;;;;;10.87;2.10;;;;;;;9.19;88.07;101320.75;6027945;28;20037;-67
2023/06/02 04:09:27;;;;;;;7.97;1.97;;;;;;;9.24;88.07;101313.31;6037813;28;20330;-66
2023/06/02 04:12:23;;;;;;;8.18;2.58;;;;;;;9.39;87.42;101323.50;6051022;28;20083;-67
2023/06/02 04:15:18;;;;;;;4.27;1.63;;;;;;;9.57;86.77;101331.72;6013982;28;20377;-66
2023/06/02 04:18:13;;;;;;;10.17;1.97;;;;;;;9.46;86.23;101318.53;6050971;28;20037;-66
2023/06/02 04:21:09;;;;;;;6.90;1.80;;;;;;;9.50;86.58;101342.00;6051260;28;20026;-66
2023/06/02 04:24:04;;;;;;;8.52;1.83;;;;;;;9.52;86.69;101329.47;6050448;28;20552;-66
2023/06/02 04:26:59;;;;;;;9.35;2.00;;;;;;;9.66;86.36;101338.94;6045855;28;20072;-66
2023/06/02 04:29:55;;;;;;;15.50;3.43;;;;;;;9.78;85.79;101345.06;6027416;28;20030;-67
2023/06/02 04:32:50;;;;;;;10.63;2.10;;;;;;;9.74;86.15;101346.25;6027046;28;20482;-67
2023/06/02 04:35:45;;;;;;;12.30;2.60;;;;;;;9.81;86.50;101344.81;6012067;28;20467;-67
2023/06/02 04:38:43;;;;;;;12.23;2.28;;;;;;;9.84;87.19;101352.47;6026919;28;20029;-66
2023/06/02 04:41:38;;;;;;;7.30;2.22;;;;;;;9.81;87.52;101350.91;6019095;28;20030;-66
2023/06/02 04:44:34;;;;;;;8.87;2.27;;;;;;;9.86;87.53;101340.81;6026767;28;20029;-66
2023/06/02 04:47:29;;;;;;;11.83;2.77;;;;;;;9.96;87.35;101333.78;6026623;28;20022;-66
2023/06/02 04:50:25;;;;;;;12.63;2.42;;;;;;;9.95;87.10;101341.84;6026955;28;20276;-66
2023/06/02 04:53:20;;;;;;;9.43;2.55;;;;;;;10.01;86.62;101336.03;6026003;28;20086;-67
2023/06/02 04:56:15;;;;;;;13.80;2.63;;;;;;;10.08;86.61;101353.94;6023302;28;20481;-66
2023/06/02 04:59:11;;;;;;;14.87;3.00;;;;;;;10.27;87.14;101366.56;6023801;28;20061;-67
2023/06/02 05:02:07;;;;;;;9.02;2.03;;;;;;;10.31;86.67;101365.31;6026404;28;20100;-67
2023/06/02 05:05:02;;;;;;;11.80;2.30;;;;;;;10.43;85.64;101360.81;6026033;28;20033;-66
2023/06/02 05:07:58;;;;;;;8.65;3.05;;;;;;;10.50;84.90;101354.84;6026131;28;20351;-68
2023/06/02 05:10:53;;;;;;;9.07;3.03;;;;;;;10.54;84.86;101358.94;6025819;28;20072;-67
2023/06/02 05:13:48;;;;;;;8.35;2.47;;;;;;;10.38;85.20;101357.72;6025938;28;20280;-66
2023/06/02 05:16:45;;;;;;;12.23;3.13;;;;;;;10.48;84.85;101350.66;6026178;28;20022;-66
2023/06/02 05:19:41;;;;;;;16.30;3.17;;;;;;;10.55;85.17;101365.91;6026393;28;20447;-66
2023/06/02 05:22:36;;;;;;;11.20;2.88;;;;;;;10.30;85.79;101341.63;6026219;28;20030;-67
2023/06/02 05:25:31;;;;;;;14.07;2.73;;;;;;;10.45;86.42;101349.09;6021252;28;20488;-67
2023/06/02 05:28:27;;;;;;;10.13;2.67;;;;;;;10.59;86.38;101345.28;6023111;28;20470;-67
2023/06/02 05:31:22;;;;;;;11.23;2.80;;;;;;;10.71;85.36;101368.94;6029015;28;20064;-67
2023/06/02 05:34:17;;;;;;;14.83;3.07;;;;;;;10.56;85.74;101345.53;6049162;28;20113;-67
2023/06/02 05:37:12;;;;;;;10.93;3.07;;;;;;;10.68;86.15;101357.78;6046733;28;20472;-66
2023/06/02 05:40:09;;;;;;;9.27;2.37;;;;;;;10.75;85.57;101362.41;6026223;28;20030;-66
2023/06/02 05:43:04;;;;;;;14.93;2.92;;;;;;;10.73;86.30;101350.25;6026050;28;20084;-67
2023/06/02 05:45:59;;;;;;;10.43;3.17;;;;;;;10.71;87.02;101363.63;6025223;28;20034;-66
2023/06/02 05:48:55;;;;;;;11.77;2.90;;;;;;;10.61;87.45;101352.16;6026057;28;20149;-67
2023/06/02 05:51:50;;;;;;;12.80;3.85;;;;;;;10.55;88.36;101351.81;6019323;28;20035;-66
2023/06/02 05:54:45;;;;;;;11.87;2.90;;;;;;;10.55;88.59;101363.25;6023659;28;20386;-66
2023/06/02 05:57:40;;;;;;;9.07;2.63;;;;;;;10.67;88.77;101367.53;6025597;28;20022;-66
2023/06/02 06:00:36;;;;;;;11.33;2.70;;;;;;;10.84;88.44;101362.59;6025637;28;20045;-67
2023/06/02 06:03:31;;;;;;;14.20;2.97;;;;;;;10.74;88.58;101366.03;6017691;28;20447;-66
2023/06/02 06:06:27;;;;;;;18.33;2.97;;;;;;;10.76;88.47;101361.44;6020372;28;20034;-66
2023/06/02 06:09:22;;;;;;;7.75;3.10;;;;;;;11.04;86.69;101365.19;6050619;28;20030;-66
2023/06/02 06:12:17;;;;;;;15.00;3.90;;;;;;;10.83;86.86;101366.22;6054084;28;20080;-67
2023/06/02 06:15:13;;;;;;;12.20;2.80;;;;;;;11.31;86.13;101368.09;6054015;28;20038;-67
2023/06/02 06:18:08;;;;;;;8.40;3.57;;;;;;;11.49;84.93;101389.56;6051751;28;20029;-66
2023/06/02 06:21:03;;;;;;;13.17;2.90;;;;;;;11.32;85.08;101387.53;6035920;28;20033;-67
2023/06/02 06:23:58;;;;;;;10.47;2.80;;;;;;;11.41;85.87;101388.56;6027250;28;20034;-67
2023/06/02 06:26:54;;;;;;;12.17;2.83;;;;;;;11.86;84.98;101388.00;6028047;28;20026;-66
2023/06/02 06:29:49;;;;;;;8.23;2.78;;;;;;;11.78;83.94;101387.84;6027616;28;20452;-67
2023/06/02 06:32:45;;;;;;;8.60;2.83;;;;;;;11.76;83.49;101389.81;6029826;28;20457;-66
2023/06/02 06:35:41;;;;;;;10.27;2.88;;;;;;;11.83;83.17;101390.94;6028965;28;20030;-66
2023/06/02 06:38:36;;;;;;;13.80;3.73;;;;;;;11.63;83.28;101389.16;6018320;28;20386;-67
2023/06/02 06:41:31;;;;;;;11.97;2.93;;;;;;;11.81;83.59;101392.03;6028988;28;20365;-67
2023/06/02 06:44:27;;;;;;;13.50;3.27;;;;;;;11.87;83.45;101397.66;6028929;28;20034;-67
2023/06/02 06:47:22;;;;;;;10.83;3.30;;;;;;;11.85;82.36;101396.09;6029694;28;20759;-67
2023/06/02 06:50:17;;;;;;;10.53;3.27;;;;;;;12.14;82.51;101396.13;6029446;28;20042;-66
2023/06/02 06:53:12;;;;;;;14.37;3.50;;;;;;;12.64;80.25;101386.19;6021837;28;20030;-67
2023/06/02 06:56:08;;;;;;;12.17;3.57;;;;;;;13.13;78.60;101382.44;6048538;28;20453;-67
2023/06/02 06:59:04;;;;;;;8.27;2.30;;;;;;;13.86;74.52;101392.97;6043795;28;20118;-67
2023/06/02 07:01:59;;;;;;;10.80;2.38;;;;;;;14.22;72.68;101377.81;6021006;28;20030;-68
2023/06/02 07:04:54;;;;;;;15.07;2.73;;;;;;;14.41;70.71;101377.69;6028523;28;20036;-67
2023/06/02 07:07:50;;;;;;;9.32;2.60;;;;;;;13.85;72.36;101385.13;6029176;28;20026;-67
2023/06/02 07:10:45;;;;;;;10.47;2.53;;;;;;;13.60;73.96;101395.53;6025057;28;20057;-67
2023/06/02 07:13:41;;;;;;;13.63;2.50;;;;;;;13.52;74.58;101397.25;6022543;28;20285;-67
2023/06/02 07:16:36;;;;;;;12.15;3.25;;;;;;;13.45;75.01;101404.16;6029039;28;20085;-67
2023/06/02 07:19:31;;;;;;;12.70;3.43;;;;;;;13.65;74.26;101401.25;6028355;28;20034;-67
2023/06/02 07:22:27;;;;;;;8.25;2.53;;;;;;;13.31;73.91;101396.66;6028485;28;20022;-67
2023/06/02 07:25:23;;;;;;;10.53;2.67;;;;;;;13.63;74.48;101413.03;6028042;28;20030;-67
2023/06/02 07:28:18;;;;;;;12.02;3.38;;;;;;;13.54;73.02;101392.59;6027824;28;20038;-67
2023/06/02 07:31:14;;;;;;;7.97;2.90;;;;;;;13.51;73.79;101403.53;6028793;28;20045;-67
2023/06/02 07:34:09;;;;;;;7.90;2.50;;;;;;;13.91;72.22;101382.72;6027887;28;20030;-67
2023/06/02 07:37:05;;;;;;;7.93;2.47;;;;;;;13.94;73.12;101398.38;6028691;28;20038;-67
2023/06/02 07:40:00;;;;;;;10.48;2.78;;;;;;;13.94;72.94;101389.56;6028254;28;20081;-67
2023/06/02 07:42:55;;;;;;;14.03;2.80;;;;;;;14.26;70.95;101395.22;6024876;28;20117;-67
2023/06/02 07:45:50;;;;;;;10.87;2.67;;;;;;;14.83;70.28;101396.53;6027619;28;20034;-67
2023/06/02 07:48:46;;;;;;;10.03;2.80;;;;;;;14.73;69.78;101403.81;6028128;28;20037;-67
2023/06/02 07:51:41;;;;;;;10.93;2.53;;;;;;;15.33;66.09;101396.63;6028522;28;20037;-67
2023/06/02 07:54:36;;;;;;;8.53;2.30;;;;;;;15.21;66.67;101398.75;6027461;28;20022;-67
2023/06/02 07:57:32;;;;;;;6.90;2.57;;;;;;;15.41;66.30;101400.19;6027899;28;20026;-67
2023/06/02 08:00:27;;;;;;;10.30;2.40;;;;;;;15.33;66.13;101412.66;6025030;28;21408;-67
2023/06/02 08:03:22;;;;;;;15.03;2.20;;;;;;;15.27;64.68;101398.09;6016494;28;20342;-67
2023/06/02 08:06:18;;;;;;;7.43;2.57;;;;;;;15.31;66.58;101409.31;6027807;28;20486;-67
2023/06/02 08:09:14;;;;;;;9.70;2.10;;;;;;;15.38;66.28;101399.69;6027759;28;20038;-67
2023/06/02 08:12:09;;;;;;;7.40;2.20;;;;;;;15.20;68.08;101402.44;6027890;28;20407;-67
2023/06/02 08:15:05;;;;;;;9.97;2.50;;;;;;;15.05;68.96;101414.72;6026990;28;20026;-67
2023/06/02 08:18:00;;;;;;;10.90;3.30;;;;;;;14.71;69.37;101408.44;6026577;28;20373;-67
2023/06/02 08:20:55;;;;;;;8.23;2.70;;;;;;;14.28;71.00;101406.56;6037831;28;20029;-66
2023/06/02 08:23:51;;;;;;;9.13;2.70;;;;;;;14.43;71.90;101406.91;6050270;28;20300;-67
2023/06/02 08:26:48;;;;;;;4.67;2.00;;;;;;;15.59;67.98;101418.84;6051304;28;20556;-67
2023/06/02 08:29:44;;;;;;;8.73;2.33;;;;;;;15.42;66.20;101407.22;6035858;28;20022;-67
2023/06/02 08:32:39;;;;;;;7.28;2.35;;;;;;;15.45;65.84;101400.72;6026053;28;20030;-67
2023/06/02 08:35:38;;;;;;;8.40;2.70;;;;;;;15.17;67.68;101410.75;6026423;28;20453;-68
2023/06/02 08:38:33;;;;;;;13.95;3.33;;;;;;;15.54;66.82;101414.97;6026877;28;20024;-67
2023/06/02 08:41:28;;;;;;;3.83;1.93;;;;;;;15.61;65.60;101422.19;6027255;28;20026;-68
2023/06/02 08:44:24;;;;;;;10.35;2.47;;;;;;;15.63;65.59;101424.69;6020954;28;20022;-67
2023/06/02 08:47:30;;;;;;;7.83;2.30;;;;;;;15.79;64.90;101422.09;6026533;28;20027;-67
2023/06/02 08:50:28;;;;;;;13.50;2.58;;;;;;;16.08;64.98;101426.03;6018566;28;20796;-67
2023/06/02 08:53:24;;;;;;;6.18;2.00;;;;;;;16.35;62.16;101408.84;6034546;28;20061;-67
2023/06/02 08:56:19;;;;;;;7.85;2.00;;;;;;;16.79;63.06;101419.22;6050409;28;20022;-68
2023/06/02 08:59:19;;;;;;;11.53;3.43;;;;;;;16.42;61.98;101407.16;6038278;28;20100;-68
2023/06/02 09:02:16;;;;;;;13.05;2.30;;;;;;;16.53;64.06;101425.59;6021380;28;20273;-67
2023/06/02 09:05:13;;;;;;;7.72;2.75;;;;;;;16.21;62.16;101414.84;6026509;28;20479;-67
2023/06/02 09:08:11;;;;;;;9.00;2.35;;;;;;;16.43;62.48;101414.19;6026309;28;20202;-68
2023/06/02 09:11:16;;;;;;;12.25;2.60;;;;;;;16.29;64.20;101424.72;6026552;28;20027;-67
2023/06/02 09:14:21;;;;;;;11.82;2.58;;;;;;;16.51;63.07;101427.59;6025888;28;20038;-68
2023/06/02 09:17:26;;;;;;;11.32;2.33;;;;;;;16.82;61.96;101419.75;6026242;28;20050;-68
2023/06/02 09:20:30;;;;;;;10.20;2.00;;;;;;;16.62;60.78;101435.31;6026272;28;20030;-67
2023/06/02 09:23:42;;;;;;;8.35;2.15;;;;;;;17.23;61.41;101429.34;6024860;28;20524;-67
2023/06/02 09:26:38;;;;;;;6.10;2.80;;;;;;;17.41;60.67;101426.47;6025793;28;20034;-68
2023/06/02 09:29:37;;;;;;;10.87;2.07;;;;;;;17.15;60.33;101432.06;6020167;28;20143;-67
2023/06/02 09:32:34;;;;;;;7.38;2.22;;;;;;;16.93;60.28;101423.91;6026055;28;20022;-67
2023/06/02 09:35:39;;;;;;;9.70;2.42;;;;;;;17.40;59.77;101443.56;6025612;28;20060;-67
2023/06/02 09:38:41;;;;;;;7.95;2.30;;;;;;;16.87;59.65;101406.66;6023417;28;20053;-68
2023/06/02 09:41:40;;;;;;;13.63;2.20;;;;;;;17.46;58.05;101439.34;6025864;28;20030;-67
2023/06/02 09:45:03;;;;;;;9.35;2.30;;;;;;;17.32;59.91;101437.38;6031144;28;20033;-68
2023/06/02 09:48:00;;;;;;;7.47;2.78;;;;;;;16.38;62.84;101432.59;6032194;28;20097;-67
2023/06/02 09:50:56;;;;;;;7.45;1.88;;;;;;;16.65;62.27;101429.63;6030943;28;20034;-67
2023/06/02 09:53:51;;;;;;;6.68;1.77;;;;;;;17.25;59.62;101432.72;6026601;28;20076;-67
2023/06/02 09:56:48;;;;;;;17.25;2.88;;;;;;;17.06;59.86;101437.63;6044232;28;20022;-67
2023/06/02 09:59:44;;;;;;;6.40;2.17;;;;;;;17.22;59.71;101442.94;6033918;28;20033;-67
2023/06/02 10:02:39;;;;;;;8.00;2.60;;;;;;;16.60;61.35;101436.50;6029923;28;20092;-67
2023/06/02 10:05:36;;;;;;;11.17;2.40;;;;;;;16.61;62.74;101444.34;6033089;28;20458;-67
2023/06/02 10:08:50;;;;;;;6.43;2.10;;;;;;;17.17;61.59;101446.16;6030510;28;20289;-67
2023/06/02 10:12:23;;;;;;;10.45;2.22;;;;;;;17.75;58.13;101442.28;6033721;28;20026;-67
2023/06/02 10:15:56;;;;;;;11.82;2.63;;;;;;;17.21;58.72;101446.63;6032749;28;20057;-67
2023/06/02 10:19:12;;;;;;;7.38;2.40;;;;;;;17.65;58.43;101447.88;6033362;28;20028;-68
2023/06/02 10:22:28;;;;;;;13.57;3.10;;;;;;;17.69;59.61;101441.13;6033475;28;20485;-68
2023/06/02 10:25:51;;;;;;;9.85;2.25;;;;;;;18.26;57.08;101444.34;6026103;28;20113;-68
2023/06/02 10:28:48;;;;;;;7.45;2.13;;;;;;;17.22;58.35;101438.44;6057041;28;20037;-67
2023/06/02 10:31:46;;;;;;;9.68;2.08;;;;;;;17.69;58.32;101441.13;6055703;28;20058;-67
2023/06/02 10:34:41;;;;;;;7.97;2.25;;;;;;;18.79;55.74;101448.84;6056512;28;20034;-67
2023/06/02 10:37:37;;;;;;;9.60;2.30;;;;;;;18.27;56.33;101439.81;6056718;28;20365;-67
2023/06/02 10:40:52;;;;;;;8.50;2.45;;;;;;;18.68;55.71;101445.75;6047073;28;20277;-68
2023/06/02 10:44:19;;;;;;;9.38;2.38;;;;;;;18.50;55.72;101439.84;6032554;28;20022;-67
2023/06/02 10:47:17;;;;;;;5.95;2.13;;;;;;;18.57;54.41;101446.16;6033307;28;20062;-68
2023/06/02 10:50:14;;;;;;;8.82;2.17;;;;;;;18.19;56.02;101442.53;6033168;28;20027;-67
2023/06/02 10:53:09;;;;;;;10.52;2.85;;;;;;;18.34;55.87;101421.97;6033020;28;20038;-68
2023/06/02 10:56:36;;;;;;;10.30;2.63;;;;;;;18.58;55.71;101437.94;6028758;28;20484;-68
2023/06/02 10:59:34;;;;;;;9.55;2.30;;;;;;;18.18;55.76;101427.47;6027138;28;20615;-68
2023/06/02 11:02:41;;;;;;;7.32;1.83;;;;;;;18.22;56.39;101434.97;6029252;28;20030;-68
2023/06/02 11:05:37;;;;;;;10.45;2.63;;;;;;;18.49;56.28;101447.06;6028836;28;20501;-68
2023/06/02 11:08:36;;;;;;;10.90;2.30;;;;;;;17.97;57.72;101437.97;6028793;28;20042;-67
2023/06/02 11:11:52;;;;;;;6.43;2.20;;;;;;;18.09;57.31;101450.84;6029108;28;20274;-68
2023/06/02 11:15:10;;;;;;;8.63;2.28;;;;;;;18.31;56.58;101441.13;6026537;28;20038;-68
2023/06/02 11:18:33;;;;;;;7.40;2.00;;;;;;;18.60;56.48;101441.28;6028940;28;20113;-68
2023/06/02 11:21:28;;;;;;;8.00;1.98;;;;;;;18.77;55.24;101432.06;6028887;28;20092;-68
2023/06/02 11:24:24;;;;;;;8.00;2.07;;;;;;;19.15;54.35;101424.81;6028288;28;20030;-67
2023/06/02 11:27:30;;;;;;;7.90;2.00;;;;;;;18.72;55.07;101445.22;6020156;28;20062;-68
2023/06/02 11:30:25;;;;;;;8.80;2.60;;;;;;;18.77;55.13;101448.19;6015083;28;20390;-67
2023/06/02 11:33:21;;;;;;;8.40;2.75;;;;;;;18.59;55.41;101439.59;6016288;28;20049;-68
2023/06/02 11:36:27;;;;;;;11.43;2.63;;;;;;;18.54;55.83;101435.78;6028622;28;20038;-68
2023/06/02 11:39:25;;;;;;;7.00;2.17;;;;;;;18.65;55.14;101448.78;6028544;28;20525;-68
2023/06/02 11:42:20;;;;;;;7.90;2.10;;;;;;;18.48;57.52;101431.94;6024593;28;20088;-68
2023/06/02 11:45:23;;;;;;;9.50;2.92;;;;;;;18.62;56.21;101449.13;6022963;28;20031;-67
2023/06/02 11:48:21;;;;;;;11.65;2.30;;;;;;;18.95;53.51;101437.09;6026901;28;20030;-68
2023/06/02 11:51:16;;;;;;;8.20;2.35;;;;;;;19.18;53.94;101445.13;6028346;28;20125;-67
2023/06/02 11:54:13;;;;;;;9.25;2.22;;;;;;;18.69;55.12;101440.19;6027350;28;20034;-67
2023/06/02 11:57:08;;;;;;;6.15;2.05;;;;;;;19.71;54.06;101434.09;6027425;28;20041;-68
2023/06/02 12:00:18;;;;;;;6.13;2.00;;;;;;;20.29;50.53;101426.91;6019748;28;20035;-67
2023/06/02 12:03:14;;;;;;;7.90;2.40;;;;;;;20.36;49.37;101419.72;6016316;28;20033;-68
2023/06/02 12:06:12;;;;;;;8.02;2.10;;;;;;;20.71;49.18;101427.72;6026851;28;20034;-68
2023/06/02 12:09:15;;;;;;;8.85;1.95;;;;;;;20.96;47.12;101427.28;6027657;28;20490;-68
2023/06/02 12:12:11;;;;;;;8.32;2.13;;;;;;;21.03;46.48;101417.41;6026992;28;20444;-68
2023/06/02 12:15:15;;;;;;;11.48;2.30;;;;;;;19.42;50.62;101431.44;6025762;28;20115;-68
2023/06/02 12:18:11;;;;;;;5.30;1.80;;;;;;;18.67;52.54;101426.09;6027705;28;20484;-67
2023/06/02 12:21:23;;;;;;;6.07;2.13;;;;;;;18.39;53.50;101427.66;6028065;28;20030;-67
2023/06/02 12:24:28;;;;;;;10.30;2.03;;;;;;;18.02;54.69;101432.94;6027047;28;20470;-68
2023/06/02 12:27:23;;;;;;;8.00;2.30;;;;;;;18.01;55.23;101429.41;6027424;28;20070;-68
2023/06/02 12:30:19;;;;;;;6.77;2.20;;;;;;;17.67;57.10;101437.78;6023830;28;20034;-68
2023/06/02 12:33:14;;;;;;;6.20;2.00;;;;;;;18.12;56.11;101449.66;6026998;28;20315;-68
2023/06/02 12:36:10;;;;;;;7.53;2.30;;;;;;;18.99;54.69;101430.34;6026851;28;20050;-68
2023/06/02 12:39:05;;;;;;;6.95;2.13;;;;;;;19.87;52.14;101431.19;6027379;28;20018;-68
2023/06/02 12:42:01;;;;;;;11.30;2.40;;;;;;;19.99;51.37;101413.53;6027225;28;20022;-68
2023/06/02 12:44:56;;;;;;;12.27;1.93;;;;;;;21.19;48.20;101417.97;6026341;28;20085;-68
2023/06/02 12:47:52;;;;;;;5.80;2.07;;;;;;;21.16;46.20;101421.06;6026364;28;20080;-67
2023/06/02 12:50:47;;;;;;;9.82;2.53;;;;;;;20.73;48.80;101427.56;6026820;28;20042;-68
2023/06/02 12:53:42;;;;;;;7.87;2.10;;;;;;;20.31;49.12;101422.16;6018797;28;20046;-68
2023/06/02 12:56:38;;;;;;;10.20;2.30;;;;;;;20.08;50.06;101423.13;6031717;28;20044;-68
2023/06/02 12:59:33;;;;;;;11.50;2.60;;;;;;;19.60;50.98;101435.41;6030788;28;20063;-68
2023/06/02 13:02:28;;;;;;;8.07;2.10;;;;;;;19.40;50.01;101436.16;6021247;28;20276;-68
2023/06/02 13:05:25;;;;;;;7.47;2.75;;;;;;;20.36;48.62;101425.09;6025894;28;20476;-68
2023/06/02 13:08:20;;;;;;;6.90;2.00;;;;;;;20.51;47.21;101426.75;6026494;28;20419;-68
2023/06/02 13:11:16;;;;;;;6.93;1.63;;;;;;;20.60;47.27;101430.13;6026465;28;20030;-68
2023/06/02 13:14:12;;;;;;;8.38;2.20;;;;;;;20.08;48.57;101428.53;6026028;28;20039;-68
2023/06/02 13:17:07;;;;;;;7.57;1.90;;;;;;;20.84;47.60;101435.13;6026443;28;20494;-68
2023/06/02 13:20:03;;;;;;;8.60;1.88;;;;;;;21.15;47.62;101421.25;6017722;28;20036;-68
2023/06/02 13:22:58;;;;;;;7.07;1.92;;;;;;;21.63;46.10;101439.19;6026463;28;20022;-68
2023/06/02 13:25:53;;;;;;;26.77;6.90;;;;;;;21.49;44.86;101425.81;6025647;28;20026;-69
2023/06/02 13:28:49;;;;;;;7.57;2.57;;;;;;;21.04;46.68;101427.16;6026481;28;20029;-68
2023/06/02 13:31:44;;;;;;;6.20;2.00;;;;;;;20.82;46.46;101425.56;6026263;28;20053;-68
2023/06/02 13:34:41;;;;;;;6.10;2.03;;;;;;;20.89;45.39;101438.06;6025317;28;20026;-69
2023/06/02 13:37:36;;;;;;;6.18;1.92;;;;;;;21.16;45.79;101429.16;6017900;28;20050;-68
2023/06/02 13:40:32;;;;;;;4.72;2.10;;;;;;;20.94;46.47;101424.81;6026018;28;20022;-68
2023/06/02 13:43:27;;;;;;;4.33;1.80;;;;;;;20.72;46.49;101439.34;6025638;28;20030;-68
2023/06/02 13:46:22;;;;;;;9.10;2.33;;;;;;;20.23;47.52;101422.25;6026122;28;20057;-68